Warspite, Canada
Current Conditions -  °F | °C
As of 8:00 AM on Thursday 30 Oct 2014 (Local Time) from CYED Reporting Station
Overcast Overcast  
Wind Chill: -5°   Ceiling: 600
Heat Index:   Visibility: 7mi
Dew Point: -1°   Wind: 10mph
Humidity: 93%   Direction: 140°SE
Pressure: 30.21"   Gusts: NA
Location:  54.09°N, 112.62°W
Report Text: CYED 301400Z AUTO 14009KT 7SM OVC006 00/M01 A3021 RMK SLP262
Loading
Personal Weather Stations






























Interactive Weather Map
Tropical Storm Tracking
New forecast layout! Learn more

10-Day Weather Forecast

Advertisements
Track Severe Weather on mobile